アティラウ の空港の天気 - METARとTAF

Atyrau Airport ( UATG / GUW ) - カザフスタン Atyrau
飛行場実況気象(Metar)
観測時間10/23 18:00 ORAT (10/23 13:00 UTC)
風向・風速北北西 6m/s
視程10km以上
天気現象
全天の8割程度の雲 雲底高度 1280m
気温7℃
湿度61%
気圧1020hPa
METARUATG 231300Z 34006MPS 9999 BKN042 07/00 Q1020 R32/CLRD70 NOSIG RMK QFE767/1023
過去の天気等 Google飛行場航空写真 Wunderground天気予報

過去48時間のMETAR

飛行場予報(TAF)
発表時間: 10/23 16:00 ORAT (10/23 11:00 UTC)
予報対象時間: 23日17時 ORAT ~ 24日17時 ORAT
風向・風速北北西 8m/s 瞬間風速 13m/s
視程10km以上
全天の8割程度の積乱雲 雲底高度 1,010m
23日20時 ORAT ~ 23日22時 ORAT に徐々に
風向・風速北西 5m/s
視程3,000m
天気現象もや
全天の4割程度の雲 雲底高度 300m
全天の8割程度の積乱雲 雲底高度 610m
23日23時 ORAT ~ 24日8時 ORAT に一時的に
視程300m
天気現象
全天を覆う雲 鉛直視程 30m
24日8時 ORAT ~ 24日9時 ORAT に徐々に
風向・風速東 7m/s
TAF UATG 231100Z 2312/2412 34008G13MPS 9999 BKN033CB TX08/2411Z TNM02/2403Z
BECMG 2315/2317 31005MPS 3000 BR SCT010 BKN020CB
TEMPO 2318/2403 0300 FG VV001
BECMG 2403/2404 08007MPS